createdAt,value
2022-12-06T00:01:09.958Z,6.21
2022-12-06T00:03:37.666Z,6.22
2022-12-06T00:06:15.955Z,6.22
2022-12-06T00:08:43.712Z,6.21
2022-12-06T00:11:13.035Z,6.22
2022-12-06T00:13:40.410Z,6.22
2022-12-06T00:16:10.272Z,6.22
2022-12-06T00:18:38.425Z,6.20
2022-12-06T00:21:07.348Z,6.20
2022-12-06T00:23:43.467Z,6.06
2022-12-06T00:26:10.422Z,6.20
2022-12-06T00:28:38.111Z,6.16
2022-12-06T00:31:08.001Z,6.15
2022-12-06T00:33:35.913Z,6.10
2022-12-06T00:36:06.630Z,6.10
2022-12-06T00:38:34.907Z,6.11
2022-12-06T00:41:04.274Z,6.11
2022-12-06T00:43:32.419Z,5.93
2022-12-06T00:45:59.356Z,6.01
2022-12-06T00:48:26.787Z,5.97
2022-12-06T00:50:53.649Z,5.99
2022-12-06T00:53:20.474Z,5.83
2022-12-06T00:55:47.496Z,5.79
2022-12-06T00:58:14.732Z,5.93
2022-12-06T01:00:41.320Z,5.89
2022-12-06T01:03:08.502Z,5.85
2022-12-06T01:05:40.758Z,5.83
2022-12-06T01:08:07.616Z,5.84
2022-12-06T01:10:34.271Z,5.78
2022-12-06T01:13:00.825Z,5.79
2022-12-06T01:15:27.516Z,5.76
2022-12-06T01:17:54.055Z,5.71
2022-12-06T01:20:20.639Z,5.71
2022-12-06T01:22:47.195Z,5.54
2022-12-06T01:25:13.678Z,5.66
2022-12-06T01:27:40.210Z,5.54
2022-12-06T01:30:07.468Z,5.59
2022-12-06T01:32:34.123Z,5.54
2022-12-06T01:35:00.614Z,5.32
2022-12-06T01:37:27.134Z,5.47
2022-12-06T01:39:53.676Z,5.45
2022-12-06T01:42:20.188Z,5.41
2022-12-06T01:44:49.150Z,5.39
2022-12-06T01:47:23.485Z,5.35
2022-12-06T01:50:24.594Z,5.29
2022-12-06T01:53:08.581Z,5.24
2022-12-06T01:55:38.949Z,5.21
2022-12-06T01:58:17.950Z,5.17
2022-12-06T02:00:44.528Z,4.98
2022-12-06T02:03:18.648Z,5.10
2022-12-06T02:05:45.515Z,5.00
2022-12-06T02:08:14.002Z,4.81
2022-12-06T02:10:40.735Z,4.94
2022-12-06T02:13:08.266Z,4.94
2022-12-06T02:15:44.977Z,4.86
2022-12-06T02:18:23.443Z,4.81
2022-12-06T02:21:01.503Z,4.80
2022-12-06T02:23:46.707Z,4.76
2022-12-06T02:26:25.522Z,4.73
2022-12-06T02:29:16.464Z,4.69
2022-12-06T02:32:10.234Z,4.65
2022-12-06T02:34:58.811Z,4.62
2022-12-06T02:37:28.338Z,4.58
2022-12-06T02:40:08.333Z,4.55
2022-12-06T02:42:55.655Z,4.53
2022-12-06T02:45:28.351Z,4.47
2022-12-06T02:47:58.085Z,4.44
2022-12-06T02:50:31.058Z,4.51
2022-12-06T02:53:01.267Z,4.55
2022-12-06T02:55:28.847Z,4.42
2022-12-06T02:57:57.384Z,4.22
2022-12-06T03:00:50.816Z,4.35
2022-12-06T03:03:32.345Z,4.31
2022-12-06T03:06:02.535Z,4.28
2022-12-06T03:09:10.942Z,4.25
2022-12-06T03:11:40.446Z,4.21
2022-12-06T03:14:14.781Z,4.01
2022-12-06T03:16:44.878Z,4.15
2022-12-06T03:19:17.326Z,4.10
2022-12-06T03:21:53.731Z,4.00
2022-12-06T03:24:22.604Z,3.90
2022-12-06T03:26:51.336Z,3.98
2022-12-06T03:29:23.802Z,3.96
2022-12-06T03:31:52.627Z,3.91
2022-12-06T03:34:21.543Z,3.88
2022-12-06T03:36:50.182Z,3.83
2022-12-06T03:39:31.582Z,3.51
2022-12-06T03:41:59.630Z,3.72
2022-12-06T03:44:26.790Z,3.71
2022-12-06T03:47:00.825Z,3.68
2022-12-06T03:49:35.177Z,3.62
2022-12-06T03:52:02.712Z,3.63
2022-12-06T03:54:29.319Z,3.59
2022-12-06T03:56:56.051Z,3.62
2022-12-06T03:59:22.653Z,3.62
2022-12-06T04:01:49.241Z,3.64
2022-12-06T04:04:15.872Z,3.52
2022-12-06T04:06:42.445Z,3.63
2022-12-06T04:09:27.593Z,3.46
2022-12-06T04:11:54.080Z,3.62
2022-12-06T04:14:20.592Z,3.50
2022-12-06T04:17:05.486Z,3.63
2022-12-06T04:19:31.977Z,3.56
2022-12-06T04:22:16.819Z,3.46
2022-12-06T04:24:43.707Z,3.57
2022-12-06T04:27:28.587Z,3.55
2022-12-06T04:30:13.692Z,3.55
2022-12-06T04:32:58.717Z,3.43
2022-12-06T04:35:43.627Z,3.55
2022-12-06T04:38:28.843Z,3.62
2022-12-06T04:40:55.327Z,3.49
2022-12-06T04:43:40.303Z,3.71
2022-12-06T04:46:07.100Z,3.80
2022-12-06T04:48:33.636Z,3.88
2022-12-06T04:51:00.182Z,3.89
2022-12-06T04:53:26.796Z,3.83
2022-12-06T04:55:53.332Z,3.92
2022-12-06T04:58:19.975Z,3.98
2022-12-06T05:00:46.586Z,4.01
2022-12-06T05:03:14.666Z,4.02
2022-12-06T05:05:42.480Z,4.07
2022-12-06T05:08:09.948Z,4.08
2022-12-06T05:10:37.281Z,4.13
2022-12-06T05:13:04.728Z,4.08
2022-12-06T05:15:31.756Z,4.16
2022-12-06T05:17:58.269Z,4.14
2022-12-06T05:20:25.062Z,4.16
2022-12-06T05:22:51.556Z,4.02
2022-12-06T05:25:18.173Z,4.18
2022-12-06T05:27:44.902Z,4.16
2022-12-06T05:30:12.279Z,4.22
2022-12-06T05:32:39.699Z,4.27
2022-12-06T05:35:07.319Z,4.31
2022-12-06T05:37:33.862Z,4.31
2022-12-06T05:40:00.675Z,4.24
2022-12-06T05:42:27.394Z,4.38
2022-12-06T05:44:54.118Z,4.34
2022-12-06T05:47:20.667Z,4.41
2022-12-06T05:49:47.244Z,4.47
2022-12-06T05:52:13.752Z,4.51
2022-12-06T05:54:40.281Z,4.54
2022-12-06T05:57:06.921Z,4.50
2022-12-06T05:59:33.656Z,4.56
2022-12-06T06:02:00.275Z,4.57
2022-12-06T06:04:26.961Z,4.60
2022-12-06T06:06:53.491Z,4.64
2022-12-06T06:09:20.099Z,4.63
2022-12-06T06:11:46.648Z,4.69
2022-12-06T06:14:13.230Z,4.72
2022-12-06T06:16:40.109Z,4.62
2022-12-06T06:19:06.801Z,4.67
2022-12-06T06:21:33.676Z,4.85
2022-12-06T06:24:00.254Z,4.88
2022-12-06T06:26:26.928Z,4.83
2022-12-06T06:28:53.672Z,4.88
2022-12-06T06:31:20.328Z,4.91
2022-12-06T06:33:46.965Z,4.82
2022-12-06T06:36:13.832Z,4.96
2022-12-06T06:38:40.385Z,4.93
2022-12-06T06:41:07.349Z,4.78
2022-12-06T06:43:33.990Z,4.76
2022-12-06T06:46:03.013Z,4.68
2022-12-06T06:48:32.070Z,4.69
2022-12-06T06:51:10.735Z,4.68
2022-12-06T06:53:38.309Z,4.68
2022-12-06T06:56:06.265Z,4.65
2022-12-06T06:58:32.815Z,4.55
2022-12-06T07:01:02.807Z,4.64
2022-12-06T07:03:29.961Z,4.59
2022-12-06T07:06:09.563Z,4.60
2022-12-06T07:08:37.706Z,4.59
2022-12-06T07:11:04.656Z,4.59
2022-12-06T07:13:31.628Z,4.62
2022-12-06T07:15:58.988Z,4.58
2022-12-06T07:18:25.880Z,4.60
2022-12-06T07:21:00.898Z,4.64
2022-12-06T07:23:27.474Z,4.65
2022-12-06T07:26:22.073Z,4.66
2022-12-06T07:28:50.393Z,4.70
2022-12-06T07:31:22.839Z,4.69
2022-12-06T07:33:53.767Z,4.64
2022-12-06T07:36:20.341Z,4.69
2022-12-06T07:38:51.591Z,4.70
2022-12-06T07:41:38.250Z,4.68
2022-12-06T07:44:23.839Z,4.72
2022-12-06T07:46:50.643Z,4.71
2022-12-06T07:49:18.203Z,4.73
2022-12-06T07:51:45.699Z,4.73
2022-12-06T07:54:12.776Z,4.74
2022-12-06T07:56:40.135Z,4.86
2022-12-06T07:59:06.666Z,4.90
2022-12-06T08:01:33.664Z,4.96
2022-12-06T08:04:01.456Z,4.92
2022-12-06T08:06:28.168Z,4.92
2022-12-06T08:08:54.694Z,4.75
2022-12-06T08:11:22.752Z,5.02
2022-12-06T08:13:49.420Z,5.06
2022-12-06T08:16:16.330Z,5.10
2022-12-06T08:18:43.502Z,5.11
2022-12-06T08:21:10.432Z,5.08
2022-12-06T08:23:36.969Z,5.09
2022-12-06T08:26:07.109Z,5.05
2022-12-06T08:28:34.909Z,5.07
2022-12-06T08:31:09.697Z,4.81
2022-12-06T08:33:36.855Z,5.03
2022-12-06T08:36:09.068Z,5.01
2022-12-06T08:38:39.154Z,5.01
2022-12-06T08:41:29.655Z,5.05
2022-12-06T08:43:57.688Z,5.09
2022-12-06T08:46:24.923Z,4.97
2022-12-06T08:48:51.859Z,5.02
2022-12-06T08:51:18.810Z,5.10
2022-12-06T08:53:45.434Z,5.09
2022-12-06T08:56:12.014Z,5.05
2022-12-06T08:58:38.613Z,5.05
2022-12-06T09:01:13.959Z,4.90
2022-12-06T09:03:40.611Z,4.61
2022-12-06T09:06:08.505Z,4.85
2022-12-06T09:08:35.653Z,4.79
2022-12-06T09:11:02.488Z,4.67
2022-12-06T09:13:29.509Z,4.79
2022-12-06T09:15:56.926Z,4.79
2022-12-06T09:18:23.547Z,4.76
2022-12-06T09:20:50.094Z,4.59
2022-12-06T09:23:16.616Z,4.71
2022-12-06T09:25:43.491Z,4.63
2022-12-06T09:28:11.202Z,4.63
2022-12-06T09:30:37.771Z,4.61
2022-12-06T09:33:04.318Z,4.54
2022-12-06T09:35:31.031Z,4.37
2022-12-06T09:37:58.916Z,4.51
2022-12-06T09:40:44.227Z,4.44
2022-12-06T09:43:32.510Z,4.44
2022-12-06T09:46:17.230Z,4.43
2022-12-06T09:49:16.195Z,4.39
2022-12-06T09:51:51.878Z,4.39
2022-12-06T09:55:00.256Z,4.37
2022-12-06T09:57:36.257Z,4.47
2022-12-06T10:00:05.167Z,4.53
2022-12-06T10:02:52.484Z,4.59
2022-12-06T10:05:58.098Z,4.65
2022-12-06T10:08:30.985Z,4.73
2022-12-06T10:11:22.685Z,4.79
2022-12-06T10:14:14.172Z,4.84
2022-12-06T10:16:49.938Z,4.91
2022-12-06T10:20:02.075Z,4.98
2022-12-06T10:23:10.013Z,5.11
2022-12-06T10:25:51.372Z,5.20
2022-12-06T10:28:32.315Z,5.18
2022-12-06T10:31:12.969Z,5.47
2022-12-06T10:33:48.594Z,5.70
2022-12-06T10:36:25.125Z,5.81
2022-12-06T10:38:56.107Z,5.94
2022-12-06T10:41:29.020Z,5.90
2022-12-06T10:44:04.407Z,6.27
2022-12-06T10:47:06.371Z,6.38
2022-12-06T10:49:54.894Z,6.48
2022-12-06T10:52:43.720Z,6.53
2022-12-06T10:55:13.147Z,6.63
2022-12-06T10:58:00.516Z,6.70
2022-12-06T11:00:31.236Z,6.60
2022-12-06T11:03:17.631Z,6.68
2022-12-06T11:05:44.072Z,6.67
2022-12-06T11:08:19.811Z,6.62
2022-12-06T11:10:47.753Z,6.49
2022-12-06T11:13:34.211Z,6.57
2022-12-06T11:16:09.402Z,6.65
2022-12-06T11:18:36.815Z,7.02
2022-12-06T11:21:19.506Z,7.19
2022-12-06T11:24:20.939Z,7.33
2022-12-06T11:27:04.715Z,7.31
2022-12-06T11:29:31.633Z,7.55
2022-12-06T11:32:08.069Z,7.56
2022-12-06T11:34:50.031Z,7.71
2022-12-06T11:37:30.708Z,7.74
2022-12-06T11:40:22.206Z,7.79
2022-12-06T11:42:48.894Z,7.68
2022-12-06T11:45:32.580Z,7.77
2022-12-06T11:48:02.226Z,7.90
2022-12-06T11:50:30.488Z,8.06
2022-12-06T11:53:02.800Z,8.15
2022-12-06T11:55:35.342Z,8.31
2022-12-06T11:58:09.352Z,8.48
2022-12-06T12:00:36.037Z,8.59
2022-12-06T12:03:02.999Z,8.63
2022-12-06T12:05:34.335Z,8.81
2022-12-06T12:08:17.327Z,8.96
2022-12-06T12:10:46.476Z,8.76
2022-12-06T12:13:31.327Z,9.01
2022-12-06T12:16:01.685Z,9.00
2022-12-06T12:18:34.574Z,9.03
2022-12-06T12:21:02.609Z,9.10
2022-12-06T12:23:33.511Z,9.07
2022-12-06T12:26:05.644Z,9.04
2022-12-06T12:28:34.731Z,8.92
2022-12-06T12:31:22.784Z,8.88
2022-12-06T12:34:13.273Z,8.88
2022-12-06T12:36:48.543Z,8.84
2022-12-06T12:39:30.388Z,8.89
2022-12-06T12:41:57.036Z,8.87
2022-12-06T12:44:38.725Z,8.85
2022-12-06T12:47:20.245Z,8.69
2022-12-06T12:50:18.688Z,8.72
2022-12-06T12:52:46.044Z,8.66
2022-12-06T12:55:17.860Z,8.62
2022-12-06T12:57:47.660Z,8.65
2022-12-06T13:00:20.031Z,8.65
2022-12-06T13:02:53.196Z,8.46
2022-12-06T13:05:33.895Z,8.46
2022-12-06T13:08:22.073Z,8.65
2022-12-06T13:10:57.070Z,8.58
2022-12-06T13:13:30.747Z,8.76
2022-12-06T13:15:59.327Z,8.70
2022-12-06T13:18:29.873Z,8.59
2022-12-06T13:20:59.434Z,8.47
2022-12-06T13:23:31.317Z,8.32
2022-12-06T13:26:14.995Z,8.13
2022-12-06T13:28:46.731Z,7.92
2022-12-06T13:31:26.291Z,7.98
2022-12-06T13:33:58.895Z,7.87
2022-12-06T13:36:26.992Z,7.73
2022-12-06T13:38:56.060Z,7.65
2022-12-06T13:41:53.295Z,7.79
2022-12-06T13:44:38.334Z,7.63
2022-12-06T13:47:28.011Z,7.60
2022-12-06T13:49:54.473Z,7.62
2022-12-06T13:52:43.016Z,7.74
2022-12-06T13:55:25.018Z,7.79
2022-12-06T13:58:00.774Z,7.64
2022-12-06T14:00:30.389Z,7.58
2022-12-06T14:03:05.769Z,7.54
2022-12-06T14:08:20.549Z,7.28
2022-12-06T14:10:47.370Z,7.33
2022-12-06T14:13:16.667Z,7.29
2022-12-06T14:15:48.757Z,7.22
2022-12-06T14:18:19.961Z,7.13
2022-12-06T14:20:48.762Z,7.13
2022-12-06T14:23:39.965Z,7.06
2022-12-06T14:26:21.415Z,6.91
2022-12-06T14:28:50.026Z,7.01
2022-12-06T14:31:18.491Z,6.93
2022-12-06T14:33:45.259Z,6.96
2022-12-06T14:36:18.431Z,7.05
2022-12-06T14:38:52.426Z,7.16
2022-12-06T14:41:38.687Z,7.25
2022-12-06T14:44:15.160Z,7.03
2022-12-06T14:46:44.284Z,7.26
2022-12-06T14:49:40.222Z,7.30
2022-12-06T14:52:25.726Z,7.31
2022-12-06T14:55:12.900Z,7.34
2022-12-06T14:58:15.826Z,7.47
2022-12-06T15:01:02.831Z,7.45
2022-12-06T15:03:34.758Z,7.44
2022-12-06T15:06:15.522Z,7.42
2022-12-06T15:09:05.067Z,7.35
2022-12-06T15:11:55.781Z,7.20
2022-12-06T15:14:45.571Z,7.28
2022-12-06T15:17:12.057Z,7.21
2022-12-06T15:19:50.408Z,7.14
2022-12-06T15:22:27.031Z,7.07
2022-12-06T15:24:59.899Z,6.94
2022-12-06T15:27:29.329Z,6.89
2022-12-06T15:29:55.889Z,6.78
2022-12-06T15:32:24.924Z,6.77
2022-12-06T15:34:51.674Z,6.53
2022-12-06T15:40:05.201Z,6.54
2022-12-06T15:42:31.795Z,6.52
2022-12-06T15:44:58.299Z,6.41
2022-12-06T15:47:25.002Z,6.47
2022-12-06T15:49:53.306Z,6.46
2022-12-06T15:52:24.808Z,6.35
2022-12-06T15:54:51.566Z,6.21
2022-12-06T15:57:18.110Z,6.47
2022-12-06T15:59:44.938Z,6.28
2022-12-06T16:02:17.172Z,6.44
2022-12-06T16:04:45.090Z,6.56
2022-12-06T16:07:13.359Z,6.40
2022-12-06T16:09:40.023Z,6.57
2022-12-06T16:12:06.850Z,6.57
2022-12-06T16:14:33.350Z,6.62
2022-12-06T16:16:59.947Z,6.64
2022-12-06T16:19:49.375Z,6.58
2022-12-06T16:22:15.918Z,6.62
2022-12-06T16:24:42.404Z,6.45
2022-12-06T16:27:08.902Z,6.52
2022-12-06T16:29:35.402Z,6.55
2022-12-06T16:32:02.031Z,6.41
2022-12-06T16:34:29.655Z,6.48
2022-12-06T16:36:59.742Z,6.36
2022-12-06T16:39:28.065Z,6.49
2022-12-06T16:41:54.692Z,6.19
2022-12-06T16:44:21.436Z,6.45
2022-12-06T16:46:48.069Z,6.37
2022-12-06T16:52:08.082Z,6.38
2022-12-06T16:54:34.596Z,6.47
2022-12-06T16:57:01.208Z,6.44
2022-12-06T16:59:27.722Z,6.29
2022-12-06T17:01:55.269Z,6.41
2022-12-06T17:04:22.247Z,6.38
2022-12-06T17:06:49.160Z,6.27
2022-12-06T17:09:16.303Z,6.29
2022-12-06T17:12:01.925Z,6.16
2022-12-06T17:14:29.085Z,6.18
2022-12-06T17:16:56.980Z,6.12
2022-12-06T17:19:27.746Z,6.05
2022-12-06T17:21:54.469Z,5.90
2022-12-06T17:24:22.513Z,5.92
2022-12-06T17:26:49.144Z,5.80
2022-12-06T17:29:16.302Z,5.80
2022-12-06T17:31:43.254Z,5.74
2022-12-06T17:34:12.683Z,5.65
2022-12-06T17:36:39.749Z,5.70
2022-12-06T17:39:07.833Z,5.67
2022-12-06T17:41:53.694Z,5.69
2022-12-06T17:44:21.058Z,5.74
2022-12-06T17:46:47.604Z,5.66
2022-12-06T17:49:16.657Z,5.77
2022-12-06T17:51:43.191Z,5.71
2022-12-06T17:54:10.272Z,5.76
2022-12-06T17:56:39.143Z,5.78
2022-12-06T17:59:08.479Z,5.80
2022-12-06T18:01:58.510Z,5.81
2022-12-06T18:04:24.066Z,5.83
2022-12-06T18:06:50.726Z,5.83
2022-12-06T18:09:17.295Z,5.84
2022-12-06T18:11:44.001Z,5.76
2022-12-06T18:14:12.651Z,5.83
2022-12-06T18:16:41.056Z,5.88
2022-12-06T18:19:11.935Z,5.89
2022-12-06T18:21:39.787Z,5.89
2022-12-06T18:24:27.713Z,5.75
2022-12-06T18:26:54.758Z,5.90
2022-12-06T18:29:23.262Z,5.91
2022-12-06T18:31:51.034Z,5.91
2022-12-06T18:34:17.777Z,5.92
2022-12-06T18:36:44.308Z,5.90
2022-12-06T18:39:15.306Z,5.94
2022-12-06T18:41:43.498Z,5.93
2022-12-06T18:44:11.150Z,5.93
2022-12-06T18:46:38.946Z,5.94
2022-12-06T18:49:06.661Z,5.98
2022-12-06T18:51:34.851Z,6.00
2022-12-06T18:54:03.158Z,5.83
2022-12-06T18:56:30.333Z,6.03
2022-12-06T18:59:05.856Z,5.99
2022-12-06T19:01:35.096Z,5.98
2022-12-06T19:04:03.518Z,6.06
2022-12-06T19:06:33.332Z,6.08
2022-12-06T19:09:03.190Z,6.09
2022-12-06T19:11:29.705Z,6.02
2022-12-06T19:13:58.124Z,6.09
2022-12-06T19:16:30.217Z,6.00
2022-12-06T19:18:59.228Z,5.80
2022-12-06T19:21:26.493Z,6.05
2022-12-06T19:23:55.270Z,6.03
2022-12-06T19:26:22.631Z,6.10
2022-12-06T19:28:49.297Z,6.10
2022-12-06T19:31:16.063Z,6.10
2022-12-06T19:33:46.295Z,5.87
2022-12-06T19:36:39.136Z,6.11
2022-12-06T19:39:06.373Z,6.10
2022-12-06T19:41:53.890Z,6.07
2022-12-06T19:44:20.487Z,6.09
2022-12-06T19:46:48.285Z,6.00
2022-12-06T19:49:16.286Z,5.99
2022-12-06T19:51:44.610Z,5.96
2022-12-06T19:54:14.519Z,5.97
2022-12-06T19:56:41.187Z,5.90
2022-12-06T19:59:13.729Z,6.06
2022-12-06T20:01:45.771Z,6.03
2022-12-06T20:04:22.693Z,5.92
2022-12-06T20:06:50.296Z,6.09
2022-12-06T20:09:17.692Z,6.07
2022-12-06T20:12:04.085Z,6.12
2022-12-06T20:14:44.424Z,6.13
2022-12-06T20:17:14.161Z,6.12
2022-12-06T20:19:46.335Z,6.06
2022-12-06T20:22:14.571Z,6.12
2022-12-06T20:24:41.626Z,6.13
2022-12-06T20:27:08.325Z,6.13
2022-12-06T20:29:35.107Z,6.17
2022-12-06T20:32:02.462Z,6.16
2022-12-06T20:34:34.157Z,6.16
2022-12-06T20:37:03.929Z,6.01
2022-12-06T20:39:32.944Z,6.18
2022-12-06T20:41:59.552Z,6.06
2022-12-06T20:44:26.090Z,6.19
2022-12-06T20:46:54.233Z,6.04
2022-12-06T20:49:20.988Z,6.12
2022-12-06T20:51:52.573Z,6.18
2022-12-06T20:54:20.061Z,6.19
2022-12-06T20:56:47.151Z,6.20
2022-12-06T20:59:14.135Z,6.19
2022-12-06T21:01:41.773Z,6.17
2022-12-06T21:04:12.859Z,6.17
2022-12-06T21:06:39.756Z,6.17
2022-12-06T21:09:06.371Z,6.19
2022-12-06T21:11:32.949Z,6.16
2022-12-06T21:13:59.484Z,6.12
2022-12-06T21:16:28.600Z,6.15
2022-12-06T21:18:56.221Z,6.13
2022-12-06T21:21:28.502Z,6.10
2022-12-06T21:23:55.206Z,6.10
2022-12-06T21:26:21.773Z,6.06
2022-12-06T21:28:48.474Z,6.10
2022-12-06T21:31:15.099Z,6.07
2022-12-06T21:33:41.890Z,6.00
2022-12-06T21:36:08.787Z,6.01
2022-12-06T21:38:35.369Z,6.00
2022-12-06T21:41:07.415Z,6.01
2022-12-06T21:43:35.759Z,5.77
2022-12-06T21:46:04.244Z,5.91
2022-12-06T21:48:31.222Z,5.94
2022-12-06T21:51:05.777Z,5.98
2022-12-06T21:53:33.230Z,5.94
2022-12-06T21:55:59.763Z,5.75
2022-12-06T21:58:26.369Z,5.86
2022-12-06T22:00:53.004Z,5.70
2022-12-06T22:03:23.161Z,5.83
2022-12-06T22:05:50.213Z,5.76
2022-12-06T22:08:16.783Z,5.77
2022-12-06T22:10:43.361Z,5.59
2022-12-06T22:13:10.027Z,5.76
2022-12-06T22:15:37.255Z,5.71
2022-12-06T22:18:04.079Z,5.70
2022-12-06T22:20:30.645Z,5.41
2022-12-06T22:22:57.249Z,5.67
2022-12-06T22:25:23.861Z,5.64
2022-12-06T22:27:52.209Z,5.55
2022-12-06T22:30:18.859Z,5.66
2022-12-06T22:32:45.394Z,5.65
2022-12-06T22:35:11.912Z,5.59
2022-12-06T22:37:38.460Z,5.52
2022-12-06T22:40:05.641Z,5.56
2022-12-06T22:42:32.653Z,5.53
2022-12-06T22:44:59.206Z,5.39
2022-12-06T22:47:25.795Z,5.46
2022-12-06T22:49:52.296Z,5.39
2022-12-06T22:52:18.819Z,5.28
2022-12-06T22:54:46.714Z,5.10
2022-12-06T22:57:13.240Z,5.15
2022-12-06T22:59:39.762Z,5.16
2022-12-06T23:02:06.278Z,5.06
2022-12-06T23:04:33.076Z,5.14
2022-12-06T23:06:59.585Z,5.09
2022-12-06T23:09:26.241Z,4.93
2022-12-06T23:11:52.813Z,5.08
2022-12-06T23:14:19.367Z,5.09
2022-12-06T23:16:46.164Z,5.09
2022-12-06T23:19:12.778Z,5.09
2022-12-06T23:21:40.904Z,5.04
2022-12-06T23:24:10.167Z,5.00
2022-12-06T23:26:40.034Z,4.88
2022-12-06T23:29:07.488Z,4.88
2022-12-06T23:31:36.466Z,4.85
2022-12-06T23:34:06.343Z,4.88
2022-12-06T23:36:34.918Z,4.85
2022-12-06T23:39:01.948Z,4.90
2022-12-06T23:41:30.599Z,4.90
2022-12-06T23:43:58.620Z,4.93
2022-12-06T23:46:30.545Z,4.94
2022-12-06T23:48:59.053Z,4.94
2022-12-06T23:51:34.063Z,4.86
2022-12-06T23:54:02.483Z,4.77
2022-12-06T23:56:31.936Z,4.79
2022-12-06T23:58:59.812Z,4.93
